RJFR/KKJ METAR and TAF weather

Enter ICAO airport designator
Station Type Date Time Source
RJFR METAR 2022/06/27 17:00 UTC NOAA

RJFR 271700Z 11005KT 9999 FEW005 24/23 Q1011


Station Type Date Time Source
RJFR Decoded METAR 2022/06/27 17:00 UTC NOAA

Kitakyushu Airport, Japan (RJFR) 33-50N 130-57E 6M
Jun 27, 2022 - 01:00 PM EDT / 2022.06.27 1700 UTC
Wind: from the ESE (110 degrees) at 6 MPH (5 KT):0
Visibility: greater than 7 mile(s):0
Sky conditions: mostly clear
Temperature: 75 F (24 C)
Dew Point: 73 F (23 C)
Relative Humidity: 94%
Pressure (altimeter): 29.85 in. Hg (1011 hPa)
ob: RJFR 271700Z 11005KT 9999 FEW005 24/23 Q1011
cycle: 17

Station Type Date Time Source
RJFR TAF 2022/06/27 12:30 UTC NOAA

TAF RJFR 271105Z 2712/2818 06004KT 9999 FEW015 SCT040
BECMG 2719/2721 10005KT

Example: see airport list